Dr.kaiyo — JD2325 — position and weather

sailwx.info

Track history (hours):
 
Tides and Currents Weather Stations Pressure Air Temp Water Temp Dewpoint Dewpoint Depression Visibility Wind Speed Wind Dir Waves Ship Positions

Dr.kaiyo

Last reported at 2016-Jul-25 03:33 UTC. Time now 2016-Jul-25 04:21 UTC.
Position N 34°39' E 135°12'.

Length 31 m.

Type: Other ship. MMSI: 431301823.

Date/timePositionNaut miles runAvg speedWind from/ knotsBaromVisibWave heightAir tempDewpointWater temp
2016-Jul-25 03:33N 34°39' E 135°12'1 1.2
2016-Jul-25 02:33N 34°38' E 135°11'9 8.7
2016-Jul-25 01:33N 34°29' E 135°09'5 5.1
2016-Jul-25 00:33N 34°33' E 135°06'10 9.8
2016-Jul-24 23:33N 34°42' E 135°12'  
2016-Jul-22 05:33N 34°39' E 135°16'5 4.8
2016-Jul-22 04:33N 34°34' E 135°17'3 3.2
2016-Jul-22 03:28N 34°34' E 135°21'5 5.0
2016-Jul-22 02:33N 34°32' E 135°17'1312.6
2016-Jul-22 01:33N 34°26' E 135°03'8 8.5
2016-Jul-22 00:34N 34°32' E 135°10'9 8.8
2016-Jul-21 23:30N 34°41' E 135°12'0 0.0
2016-Jul-21 05:26N 34°41' E 135°12'7 8.1
2016-Jul-21 04:33N 34°34' E 135°13'11 8.7
2016-Jul-21 03:20N 34°33' E 135°00'0 0.0
2016-Jul-21 02:32N 34°33' E 135°00'6 6.5
2016-Jul-21 01:33N 34°34' E 135°08'8 7.4
2016-Jul-21 00:28N 34°41' E 135°13'0 0.0
2016-Jul-20 23:30N 34°41' E 135°13'1 0.0
2016-Jul-20 07:04N 34°41' E 135°12'2 4.4
2016-Jul-20 06:34N 34°39' E 135°11'9 8.3
2016-Jul-20 05:27N 34°30' E 135°09'1 1.2
2016-Jul-20 04:33N 34°31' E 135°08'7 5.6
2016-Jul-20 03:22N 34°33' E 135°00'0 0.1
2016-Jul-20 02:28N 34°33' E 135°00'7 7.5
2016-Jul-20 01:33N 34°26' E 135°03'8 7.2
2016-Jul-20 00:30N 34°33' E 135°09'9 9.7
2016-Jul-19 23:31N 34°41' E 135°12'2 0.1
2016-Jul-19 04:33N 34°39' E 135°12'1 0.6
2016-Jul-19 03:31N 34°39' E 135°12'5 5.4
2016-Jul-19 02:31N 34°34' E 135°14'5 5.4
2016-Jul-19 01:33N 34°33' E 135°08'3 2.6
2016-Jul-19 00:34N 34°35' E 135°09'7 6.4
2016-Jul-18 23:28N 34°41' E 135°12'0 0.0
2016-Jul-18 22:28N 34°41' E 135°12'0 0.0
2016-Jul-18 21:22N 34°41' E 135°12'0 0.0
2016-Jul-18 20:22N 34°41' E 135°12'0 0.0
2016-Jul-18 19:28N 34°41' E 135°12'0 0.0
2016-Jul-18 18:28N 34°41' E 135°12'0 0.0
2016-Jul-18 17:28N 34°41' E 135°12'0 0.0
2016-Jul-18 16:28N 34°41' E 135°12'0 0.0
2016-Jul-18 15:28N 34°41' E 135°12'0 0.0
2016-Jul-18 14:28N 34°41' E 135°12'0 0.0
2016-Jul-18 13:28N 34°41' E 135°12'0 0.0
2016-Jul-18 12:28N 34°41' E 135°12'0 0.0
2016-Jul-18 11:22N 34°41' E 135°12'0 0.0
2016-Jul-18 10:28N 34°41' E 135°12'0 0.0
2016-Jul-18 09:28N 34°41' E 135°12'0 0.0
2016-Jul-18 08:16N 34°41' E 135°12'0 0.0
2016-Jul-18 07:28N 34°41' E 135°12'1 1.0
2016-Jul-18 06:20N 34°41' E 135°11'0 0.0
2016-Jul-18 05:32N 34°41' E 135°11'0 0.0
2016-Jul-18 04:32N 34°41' E 135°11'0 0.0
2016-Jul-18 03:20N 34°41' E 135°11'0 0.0
2016-Jul-18 02:26N 34°41' E 135°11'0 0.0
2016-Jul-18 01:32N 34°41' E 135°11'0 0.1
2016-Jul-18 00:30N 34°41' E 135°11'  
2016-Jul-15 04:33N 34°41' E 135°14'  
Track history (hours):
 
Tides and Currents Weather Stations Pressure Air Temp Water Temp Dewpoint Dewpoint Depression Visibility Wind Speed Wind Dir Waves Ship Positions

Dr.kaiyo

Last reported at 2016-Jul-25 03:33 UTC. Time now 2016-Jul-25 04:21 UTC.
Position N 34°39' E 135°12'.

Length 31 m.

Type: Other ship. MMSI: 431301823.

Date/timePositionNaut miles runAvg speedWind from/ knotsBaromVisibWave heightAir tempDewpointWater temp
2016-Jul-25 03:33N 34°39' E 135°12'1 1.2
2016-Jul-25 02:33N 34°38' E 135°11'9 8.7
2016-Jul-25 01:33N 34°29' E 135°09'5 5.1
2016-Jul-25 00:33N 34°33' E 135°06'10 9.8
2016-Jul-24 23:33N 34°42' E 135°12'  
2016-Jul-22 05:33N 34°39' E 135°16'5 4.8
2016-Jul-22 04:33N 34°34' E 135°17'3 3.2
2016-Jul-22 03:28N 34°34' E 135°21'5 5.0
2016-Jul-22 02:33N 34°32' E 135°17'1312.6
2016-Jul-22 01:33N 34°26' E 135°03'8 8.5
2016-Jul-22 00:34N 34°32' E 135°10'9 8.8
2016-Jul-21 23:30N 34°41' E 135°12'0 0.0
2016-Jul-21 05:26N 34°41' E 135°12'7 8.1
2016-Jul-21 04:33N 34°34' E 135°13'11 8.7
2016-Jul-21 03:20N 34°33' E 135°00'0 0.0
2016-Jul-21 02:32N 34°33' E 135°00'6 6.5
2016-Jul-21 01:33N 34°34' E 135°08'8 7.4
2016-Jul-21 00:28N 34°41' E 135°13'0 0.0
2016-Jul-20 23:30N 34°41' E 135°13'1 0.0
2016-Jul-20 07:04N 34°41' E 135°12'2 4.4
2016-Jul-20 06:34N 34°39' E 135°11'9 8.3
2016-Jul-20 05:27N 34°30' E 135°09'1 1.2
2016-Jul-20 04:33N 34°31' E 135°08'7 5.6
2016-Jul-20 03:22N 34°33' E 135°00'0 0.1
2016-Jul-20 02:28N 34°33' E 135°00'7 7.5
2016-Jul-20 01:33N 34°26' E 135°03'8 7.2
2016-Jul-20 00:30N 34°33' E 135°09'9 9.7
2016-Jul-19 23:31N 34°41' E 135°12'2 0.1
2016-Jul-19 04:33N 34°39' E 135°12'1 0.6
2016-Jul-19 03:31N 34°39' E 135°12'5 5.4
2016-Jul-19 02:31N 34°34' E 135°14'5 5.4
2016-Jul-19 01:33N 34°33' E 135°08'3 2.6
2016-Jul-19 00:34N 34°35' E 135°09'7 6.4
2016-Jul-18 23:28N 34°41' E 135°12'0 0.0
2016-Jul-18 22:28N 34°41' E 135°12'0 0.0
2016-Jul-18 21:22N 34°41' E 135°12'0 0.0
2016-Jul-18 20:22N 34°41' E 135°12'0 0.0
2016-Jul-18 19:28N 34°41' E 135°12'0 0.0
2016-Jul-18 18:28N 34°41' E 135°12'0 0.0
2016-Jul-18 17:28N 34°41' E 135°12'0 0.0
2016-Jul-18 16:28N 34°41' E 135°12'0 0.0
2016-Jul-18 15:28N 34°41' E 135°12'0 0.0
2016-Jul-18 14:28N 34°41' E 135°12'0 0.0
2016-Jul-18 13:28N 34°41' E 135°12'0 0.0
2016-Jul-18 12:28N 34°41' E 135°12'0 0.0
2016-Jul-18 11:22N 34°41' E 135°12'0 0.0
2016-Jul-18 10:28N 34°41' E 135°12'0 0.0
2016-Jul-18 09:28N 34°41' E 135°12'0 0.0
2016-Jul-18 08:16N 34°41' E 135°12'0 0.0
2016-Jul-18 07:28N 34°41' E 135°12'1 1.0
2016-Jul-18 06:20N 34°41' E 135°11'0 0.0
2016-Jul-18 05:32N 34°41' E 135°11'0 0.0
2016-Jul-18 04:32N 34°41' E 135°11'0 0.0
2016-Jul-18 03:20N 34°41' E 135°11'0 0.0
2016-Jul-18 02:26N 34°41' E 135°11'0 0.0
2016-Jul-18 01:32N 34°41' E 135°11'0 0.1
2016-Jul-18 00:30N 34°41' E 135°11'  
2016-Jul-15 04:33N 34°41' E 135°14'  

Dump ship's entire track history